createdAt,value
2018-05-29T00:04:06.800Z,21.4
2018-05-29T00:09:06.797Z,21.4
2018-05-29T00:14:06.804Z,21.2
2018-05-29T00:19:18.341Z,21.2
2018-05-29T00:24:18.307Z,21.1
2018-05-29T00:29:18.071Z,21.1
2018-05-29T00:34:18.298Z,21.1
2018-05-29T00:39:18.288Z,21
2018-05-29T00:44:18.084Z,20.9
2018-05-29T00:49:18.089Z,20.9
2018-05-29T00:54:18.075Z,20.9
2018-05-29T00:59:18.096Z,20.7
2018-05-29T01:04:30.260Z,20.6
2018-05-29T01:09:29.766Z,20.4
2018-05-29T01:14:30.078Z,20.3
2018-05-29T01:19:29.762Z,20.3
2018-05-29T01:24:29.956Z,20.2
2018-05-29T01:29:29.779Z,20.2
2018-05-29T01:34:29.782Z,20
2018-05-29T01:39:29.796Z,19.9
2018-05-29T01:44:29.787Z,20
2018-05-29T01:49:41.617Z,20
2018-05-29T01:54:41.498Z,19.9
2018-05-29T01:59:41.444Z,19.7
2018-05-29T02:04:41.344Z,20
2018-05-29T02:09:41.525Z,20
2018-05-29T02:14:41.556Z,19.9
2018-05-29T02:19:41.514Z,19.8
2018-05-29T02:24:41.370Z,19.6
2018-05-29T02:29:41.566Z,19.5
2018-05-29T02:34:41.364Z,19.5
2018-05-29T02:39:41.528Z,19.4
2018-05-29T02:44:41.541Z,19.4
2018-05-29T02:49:41.346Z,19.3
2018-05-29T02:54:41.528Z,19.4
2018-05-29T02:59:53.811Z,19.4
2018-05-29T03:04:53.666Z,19.3
2018-05-29T03:09:53.530Z,19.3
2018-05-29T03:14:54.660Z,19.3
2018-05-29T03:19:53.667Z,19.2
2018-05-29T03:24:53.920Z,19.2
2018-05-29T03:29:53.962Z,19.2
2018-05-29T03:34:53.570Z,19.2
2018-05-29T03:39:53.557Z,19.1
2018-05-29T03:45:05.804Z,19
2018-05-29T03:50:05.665Z,19
2018-05-29T03:55:05.545Z,18.9
2018-05-29T04:00:05.735Z,19
2018-05-29T04:05:05.804Z,19.2
2018-05-29T04:10:05.806Z,19.4
2018-05-29T04:15:05.557Z,19.5
2018-05-29T04:20:05.848Z,19.6
2018-05-29T04:25:05.607Z,19.9
2018-05-29T04:30:19.375Z,19.9
2018-05-29T04:35:19.507Z,20.1
2018-05-29T04:40:19.329Z,20.2
2018-05-29T04:45:19.759Z,20.3
2018-05-29T04:50:19.268Z,20.7
2018-05-29T04:55:19.111Z,20.9
2018-05-29T05:00:22.497Z,21.1
2018-05-29T05:05:20.485Z,21.4
2018-05-29T05:10:20.321Z,21.7
2018-05-29T05:15:32.576Z,21.9
2018-05-29T05:20:32.290Z,22.1
2018-05-29T05:25:32.312Z,22.5
2018-05-29T05:30:32.441Z,22.7
2018-05-29T05:35:32.498Z,23
2018-05-29T05:40:32.288Z,23.3
2018-05-29T05:45:32.527Z,23.4
2018-05-29T05:50:32.309Z,23.7
2018-05-29T05:55:32.312Z,24
2018-05-29T06:00:32.445Z,24.3
2018-05-29T06:05:32.328Z,24.5
2018-05-29T06:10:32.515Z,24.9
2018-05-29T06:15:32.896Z,25.3
2018-05-29T06:20:32.795Z,25.4
2018-05-29T06:25:44.822Z,25.7
2018-05-29T06:30:44.735Z,25.8
2018-05-29T06:35:44.762Z,26.1
2018-05-29T06:40:44.819Z,25.9
2018-05-29T06:45:44.561Z,26.3
2018-05-29T06:50:44.774Z,26.3
2018-05-29T06:55:44.568Z,26.8
2018-05-29T07:00:44.588Z,27.2
2018-05-29T07:05:45.445Z,27.6
2018-05-29T07:10:56.049Z,27.8
2018-05-29T07:15:56.003Z,28.2
2018-05-29T07:20:55.927Z,28.4
2018-05-29T07:25:55.732Z,28.8
2018-05-29T07:30:55.740Z,29
2018-05-29T07:35:55.803Z,28.7
2018-05-29T07:40:55.980Z,28.9
2018-05-29T07:45:55.982Z,28.9
2018-05-29T07:50:55.753Z,29.2
2018-05-29T07:55:55.802Z,29.5
2018-05-29T08:00:55.802Z,29.6
2018-05-29T08:05:56.034Z,29.6
2018-05-29T08:10:55.870Z,29.6
2018-05-29T08:15:55.992Z,30.3
2018-05-29T08:21:08.408Z,30.3
2018-05-29T08:26:08.136Z,29.9
2018-05-29T08:31:08.208Z,30.4
2018-05-29T08:36:08.158Z,30.5
2018-05-29T08:41:08.357Z,30.6
2018-05-29T08:46:08.116Z,30.9
2018-05-29T08:51:08.142Z,31.3
2018-05-29T08:56:08.176Z,31.5
2018-05-29T09:01:08.267Z,31.8
2018-05-29T09:06:19.943Z,31.6
2018-05-29T09:11:20.045Z,31
2018-05-29T09:16:19.857Z,31.1
2018-05-29T09:21:20.867Z,30.8
2018-05-29T09:26:19.887Z,30.9
2018-05-29T09:31:19.867Z,31
2018-05-29T09:36:19.789Z,30.8
2018-05-29T09:41:21.287Z,31.1
2018-05-29T09:46:21.190Z,31.3
2018-05-29T09:51:33.310Z,31.3
2018-05-29T09:56:33.050Z,31.4
2018-05-29T10:01:33.036Z,31.7
2018-05-29T10:06:34.399Z,31.6
2018-05-29T10:11:34.233Z,31.8
2018-05-29T10:16:34.138Z,31.8
2018-05-29T10:21:34.349Z,32
2018-05-29T10:26:37.556Z,32.1
2018-05-29T10:31:37.506Z,32.4
2018-05-29T10:36:49.646Z,32.4
2018-05-29T10:41:49.521Z,32.2
2018-05-29T10:46:50.575Z,32.4
2018-05-29T10:51:49.564Z,32.3
2018-05-29T10:56:49.518Z,32.4
2018-05-29T11:01:49.567Z,32.5
2018-05-29T11:06:49.649Z,32.6
2018-05-29T11:11:51.070Z,32.8
2018-05-29T11:16:50.919Z,33.4
2018-05-29T11:22:03.366Z,33.5
2018-05-29T11:27:03.232Z,33.5
2018-05-29T11:32:03.211Z,33.3
2018-05-29T11:37:03.322Z,33.3
2018-05-29T11:42:03.453Z,33.3
2018-05-29T11:47:03.317Z,32.8
2018-05-29T11:52:03.337Z,33.1
2018-05-29T11:57:07.259Z,33
2018-05-29T12:02:07.188Z,33.3
2018-05-29T12:07:19.537Z,33.2
2018-05-29T12:12:19.245Z,33
2018-05-29T12:17:19.655Z,32.7
2018-05-29T12:22:19.420Z,32.6
2018-05-29T12:27:19.413Z,32.5
2018-05-29T12:32:19.276Z,32.4
2018-05-29T12:37:19.507Z,32.2
2018-05-29T12:42:19.399Z,32.2
2018-05-29T12:47:19.472Z,32.4
2018-05-29T12:52:19.660Z,32.3
2018-05-29T12:57:20.270Z,32.1
2018-05-29T13:02:19.291Z,32.4
2018-05-29T13:07:19.575Z,32.3
2018-05-29T13:12:19.258Z,32.3
2018-05-29T13:17:33.688Z,32.5
2018-05-29T13:22:34.423Z,32.6
2018-05-29T13:27:33.555Z,32.6
2018-05-29T13:32:33.594Z,32.8
2018-05-29T13:37:33.400Z,32.5
2018-05-29T13:42:33.574Z,32.3
2018-05-29T13:47:33.611Z,31.8
2018-05-29T13:52:34.525Z,31.3
2018-05-29T13:57:34.278Z,31
2018-05-29T14:02:46.962Z,31.3
2018-05-29T14:07:46.812Z,31.6
2018-05-29T14:12:46.703Z,31.4
2018-05-29T14:17:46.715Z,31.4
2018-05-29T14:22:46.944Z,31.5
2018-05-29T14:27:46.707Z,31.4
2018-05-29T14:32:46.694Z,31.7
2018-05-29T14:37:49.464Z,31.5
2018-05-29T14:42:49.167Z,30.7
2018-05-29T14:48:02.058Z,30.6
2018-05-29T14:53:01.806Z,30.7
2018-05-29T14:58:01.911Z,30.6
2018-05-29T15:03:01.798Z,30.7
2018-05-29T15:08:01.797Z,31.1
2018-05-29T15:13:01.805Z,30.7
2018-05-29T15:18:01.948Z,30.7
2018-05-29T15:23:04.424Z,30.5
2018-05-29T15:28:04.241Z,30.8
2018-05-29T15:33:16.765Z,30.3
2018-05-29T15:38:16.465Z,29.8
2018-05-29T15:43:16.449Z,29.7
2018-05-29T15:48:16.706Z,29.7
2018-05-29T15:53:16.747Z,29.7
2018-05-29T15:58:20.682Z,29.5
2018-05-29T16:03:16.613Z,29.6
2018-05-29T16:08:19.855Z,29.6
2018-05-29T16:13:20.063Z,29.2
2018-05-29T16:18:30.272Z,29.1
2018-05-29T16:23:30.118Z,29
2018-05-29T16:28:30.189Z,28.6
2018-05-29T16:33:29.999Z,28.5
2018-05-29T16:38:30.320Z,28.3
2018-05-29T16:43:36.707Z,28.2
2018-05-29T16:48:36.155Z,28
2018-05-29T16:53:36.216Z,27.8
2018-05-29T16:58:37.210Z,27.7
2018-05-29T17:03:36.040Z,27.6
2018-05-29T17:08:37.255Z,27.6
2018-05-29T17:13:37.279Z,27.5
2018-05-29T17:18:41.828Z,27.3
2018-05-29T17:23:42.580Z,27.1
2018-05-29T17:28:52.732Z,27.1
2018-05-29T17:33:53.462Z,27
2018-05-29T17:38:52.463Z,26.8
2018-05-29T17:43:52.616Z,26.7
2018-05-29T17:48:52.476Z,26.6
2018-05-29T17:53:52.474Z,26.6
2018-05-29T17:58:52.481Z,26.5
2018-05-29T18:03:53.491Z,26.4
2018-05-29T18:08:52.497Z,26.3
2018-05-29T18:14:05.425Z,26.2
2018-05-29T18:19:04.151Z,26.1
2018-05-29T18:24:04.140Z,25.9
2018-05-29T18:29:04.163Z,25.9
2018-05-29T18:34:05.831Z,25.8
2018-05-29T18:39:04.150Z,25.7
2018-05-29T18:44:04.134Z,25.6
2018-05-29T18:49:05.717Z,25.4
2018-05-29T18:54:05.268Z,25.4
2018-05-29T18:59:18.607Z,25.3
2018-05-29T19:04:17.333Z,25.3
2018-05-29T19:09:17.548Z,25.1
2018-05-29T19:14:17.322Z,24.8
2018-05-29T19:19:17.327Z,24.7
2018-05-29T19:24:17.333Z,24.5
2018-05-29T19:29:18.420Z,24.4
2018-05-29T19:34:19.558Z,24.3
2018-05-29T19:39:19.690Z,24.2
2018-05-29T19:44:31.478Z,24.2
2018-05-29T19:49:31.382Z,23.8
2018-05-29T19:54:31.324Z,23.7
2018-05-29T19:59:31.349Z,23.7
2018-05-29T20:04:31.354Z,23.5
2018-05-29T20:09:31.207Z,23.5
2018-05-29T20:14:31.202Z,23.4
2018-05-29T20:19:31.599Z,23.3
2018-05-29T20:24:31.545Z,23.4
2018-05-29T20:29:43.822Z,23.3
2018-05-29T20:34:43.188Z,23.2
2018-05-29T20:39:43.434Z,22.9
2018-05-29T20:44:43.214Z,22.9
2018-05-29T20:49:43.356Z,22.8
2018-05-29T20:54:44.394Z,22.7
2018-05-29T20:59:43.221Z,22.7
2018-05-29T21:04:44.915Z,22.5
2018-05-29T21:09:44.640Z,22.4
2018-05-29T21:14:57.242Z,22.3
2018-05-29T21:19:56.974Z,22.2
2018-05-29T21:24:56.967Z,21.9
2018-05-29T21:29:57.077Z,22
2018-05-29T21:34:57.015Z,21.6
2018-05-29T21:39:57.129Z,21.7
2018-05-29T21:44:57.017Z,21.6
2018-05-29T21:49:57.021Z,21.6
2018-05-29T21:54:57.199Z,21.3
2018-05-29T22:00:08.812Z,21.1
2018-05-29T22:05:11.428Z,21.1
2018-05-29T22:10:08.377Z,21.2
2018-05-29T22:15:08.389Z,21
2018-05-29T22:20:08.409Z,20.7
2018-05-29T22:25:08.403Z,20.8
2018-05-29T22:30:08.607Z,20.8
2018-05-29T22:35:10.639Z,20.4
2018-05-29T22:40:10.508Z,20.5
2018-05-29T22:45:22.523Z,20.5
2018-05-29T22:50:22.235Z,20.4
2018-05-29T22:55:22.238Z,20.2
2018-05-29T23:00:22.229Z,20.2
2018-05-29T23:05:22.465Z,20.1
2018-05-29T23:10:22.245Z,19.9
2018-05-29T23:15:22.259Z,19.9
2018-05-29T23:20:25.612Z,20
2018-05-29T23:25:25.059Z,20
2018-05-29T23:30:35.416Z,19.8
2018-05-29T23:35:35.362Z,19.8
2018-05-29T23:40:35.380Z,19.8
2018-05-29T23:45:35.149Z,19.7
2018-05-29T23:50:35.168Z,19.6
2018-05-29T23:55:35.167Z,19.4
